Riviere-a-Claude, Canada
Current Conditions -  °F | °C
As of 11:00 AM on Tuesday 21 Oct 2014 (Local Time) from CYZV Reporting Station
Overcast Overcast  
Wind Chill: 38°   Ceiling: 4100
Heat Index: 45°   Visibility: 30mi
Dew Point: 32°   Wind: 14mph
Humidity: 61%   Direction: 30°NNE
Pressure: 30.04"   Gusts: NA
Location:  49.22°N, 65.89°W
Report Text: CYZV 211500Z 03012KT 30SM FEW020 OVC041 07/00 A3004 RMK CU1SC8 CU TR SLP173
Loading
Personal Weather Stations






























Interactive Weather Map
Tropical Storm Tracking
New forecast layout! Learn more

10-Day Weather Forecast

Advertisements
Track Severe Weather on mobile